Ramsey, IL

8:20 AM CST en Enero 29, 2015 (GMT -0600)
Litchfield | Change Station
CLOSE
Current Station
Aeropuerto
Location: Litchfield,
Altura: 689 ft
Estaciones meteorológicas cercanas

Alt 689 ft 39.16 °N, 89.67 °W | Updated 5 minutes ago

Nublado
Nublado
37 ° F
Sensación térmica 27 ° F
N
18
Viento Variable Viento desde ONO
Gusts 31 mph

Hoy
Alta -- | Baja -- ° F
--% Posibilidad de precipitaciones
Ayer
Alta -- | Baja -- ° F
Precip. -- pul
7:05 AM 5:13 PM
Gibosa creciente, 74% visible
Presión 29.99 pul
Visibilidad 5.0 Millas
Nubes Nublado 1300 ft
Vientos helados 27 ° F
Punto de rocío 33 ° F
Humedad 86%
Precipitaciones 0.00 pul
Espesor de la nieve No disponible.
UV 0 de una escala de 12
Polen 1.00 de una escala de 12
Calidad del aire No disponible.
Flu Activity No disponible.
METAR K3LF 291415Z AUTO 30016G27KT 5SM BR OVC013 03/01 A2999 RMK AO2 T00270005

More Conditions Fewer Conditions

Presión 29.99 pul
Visibilidad 5.0 Millas
Nubes Nublado 1300 ft
Vientos helados 27 ° F
Punto de rocío 33 ° F
Humedad 86%
Precipitaciones 0.00 pul
Espesor de la nieve No disponible.
UV 0 de una escala de 12
Polen 1.00 de una escala de 12
Calidad del aire No disponible.
Flu Activity No disponible.
METAR K3LF 291415Z AUTO 30016G27KT 5SM BR OVC013 03/01 A2999 RMK AO2 T00270005

More Conditions Fewer Conditions

10-Day Weather Forecast

Almanac

Astronomía

Jan. 29, 2015 Salida Puesta
Hora real
Crepúsculo civil
Crepúsculo náutico
Crepúsculo astronómico
Luna
Horas de luz
Horas de luz
Tomorrow will be .
, % of the Moon is Illuminated

Extremos de hoy

Máximos del estado Bajos del estado

Community

WunderPhotos

Upload Photos

1,791,434 ¡fotos cargadas!

WunderBlogs® & News

Nearby

Calidad del aire

  Calidad del aire Índice AQ Contaminante
Not available.

Grosos de nieve

Estación Profundido Altura

Actividad de terremotos

Ciudad Distance Mag. Tiempo y dato
Magnitud mínima muestra es 2,5.

Temperaturas de aguas costeras

Lugar Temperatura

Estaciones meteorológicas cercanas